sensor_id;sensor_type;location;lat;lon;timestamp;temperature;humidity
19665;DHT22;9980;51.020;7.772;2022-11-02T00:01:20;12.40;99.10
19665;DHT22;9980;51.020;7.772;2022-11-02T00:04:15;12.50;99.10
19665;DHT22;9980;51.020;7.772;2022-11-02T00:06:48;12.50;99.10
19665;DHT22;9980;51.020;7.772;2022-11-02T00:09:41;12.50;99.10
19665;DHT22;9980;51.020;7.772;2022-11-02T00:12:14;12.60;99.10
19665;DHT22;9980;51.020;7.772;2022-11-02T00:15:08;12.60;99.00
19665;DHT22;9980;51.020;7.772;2022-11-02T00:17:45;12.60;99.40
19665;DHT22;9980;51.020;7.772;2022-11-02T00:20:47;12.70;99.20
19665;DHT22;9980;51.020;7.772;2022-11-02T00:23:20;12.80;99.20
19665;DHT22;9980;51.020;7.772;2022-11-02T00:26:15;12.80;99.10
19665;DHT22;9980;51.020;7.772;2022-11-02T00:28:54;12.80;99.00
19665;DHT22;9980;51.020;7.772;2022-11-02T00:31:40;12.90;99.00
19665;DHT22;9980;51.020;7.772;2022-11-02T00:34:20;12.90;99.00
19665;DHT22;9980;51.020;7.772;2022-11-02T00:37:06;13.00;98.90
19665;DHT22;9980;51.020;7.772;2022-11-02T00:39:46;13.00;99.10
19665;DHT22;9980;51.020;7.772;2022-11-02T00:42:31;13.00;98.90
19665;DHT22;9980;51.020;7.772;2022-11-02T00:45:11;13.00;98.80
19665;DHT22;9980;51.020;7.772;2022-11-02T00:47:56;13.10;98.80
19665;DHT22;9980;51.020;7.772;2022-11-02T00:50:36;13.10;98.80
19665;DHT22;9980;51.020;7.772;2022-11-02T00:53:22;13.20;98.80
19665;DHT22;9980;51.020;7.772;2022-11-02T00:56:02;13.20;98.70
19665;DHT22;9980;51.020;7.772;2022-11-02T00:58:47;13.20;98.70
19665;DHT22;9980;51.020;7.772;2022-11-02T01:01:27;13.20;98.70
19665;DHT22;9980;51.020;7.772;2022-11-02T01:04:13;13.30;99.10
19665;DHT22;9980;51.020;7.772;2022-11-02T01:06:52;13.30;98.70
19665;DHT22;9980;51.020;7.772;2022-11-02T01:09:45;13.30;98.60
19665;DHT22;9980;51.020;7.772;2022-11-02T01:12:19;13.30;98.60
19665;DHT22;9980;51.020;7.772;2022-11-02T01:15:12;13.40;98.60
19665;DHT22;9980;51.020;7.772;2022-11-02T01:17:52;13.40;98.50
19665;DHT22;9980;51.020;7.772;2022-11-02T01:20:44;13.40;98.40
19665;DHT22;9980;51.020;7.772;2022-11-02T01:23:18;13.40;98.40
19665;DHT22;9980;51.020;7.772;2022-11-02T01:26:11;13.40;98.40
19665;DHT22;9980;51.020;7.772;2022-11-02T01:28:44;13.40;98.40
19665;DHT22;9980;51.020;7.772;2022-11-02T01:31:36;13.40;98.30
19665;DHT22;9980;51.020;7.772;2022-11-02T01:34:16;13.40;98.40
19665;DHT22;9980;51.020;7.772;2022-11-02T01:37:01;13.40;98.30
19665;DHT22;9980;51.020;7.772;2022-11-02T01:39:40;13.40;98.40
19665;DHT22;9980;51.020;7.772;2022-11-02T01:42:27;13.40;98.40
19665;DHT22;9980;51.020;7.772;2022-11-02T01:45:08;13.40;98.40
19665;DHT22;9980;51.020;7.772;2022-11-02T01:47:57;13.40;98.40
19665;DHT22;9980;51.020;7.772;2022-11-02T01:50:37;13.40;98.50
19665;DHT22;9980;51.020;7.772;2022-11-02T01:53:24;13.40;98.50
19665;DHT22;9980;51.020;7.772;2022-11-02T01:56:03;13.40;98.60
19665;DHT22;9980;51.020;7.772;2022-11-02T01:58:55;13.40;98.60
19665;DHT22;9980;51.020;7.772;2022-11-02T02:01:37;13.40;98.60
19665;DHT22;9980;51.020;7.772;2022-11-02T02:04:31;13.40;98.60
19665;DHT22;9980;51.020;7.772;2022-11-02T02:07:05;13.40;98.60
19665;DHT22;9980;51.020;7.772;2022-11-02T02:09:59;13.40;98.60
19665;DHT22;9980;51.020;7.772;2022-11-02T02:12:33;13.40;98.60
19665;DHT22;9980;51.020;7.772;2022-11-02T02:15:39;13.50;98.60
19665;DHT22;9980;51.020;7.772;2022-11-02T02:18:24;13.50;98.70
19665;DHT22;9980;51.020;7.772;2022-11-02T02:25:08;13.50;98.80
19665;DHT22;9980;51.020;7.772;2022-11-02T02:34:38;13.50;98.70
19665;DHT22;9980;51.020;7.772;2022-11-02T02:37:26;13.50;98.80
19665;DHT22;9980;51.020;7.772;2022-11-02T02:40:35;13.50;98.60
19665;DHT22;9980;51.020;7.772;2022-11-02T02:43:24;13.50;98.60
19665;DHT22;9980;51.020;7.772;2022-11-02T02:46:52;13.50;98.60
19665;DHT22;9980;51.020;7.772;2022-11-02T02:49:41;13.50;98.60
19665;DHT22;9980;51.020;7.772;2022-11-02T02:52:33;13.50;98.60
19665;DHT22;9980;51.020;7.772;2022-11-02T02:55:21;13.40;98.60
19665;DHT22;9980;51.020;7.772;2022-11-02T02:58:25;13.50;98.70
19665;DHT22;9980;51.020;7.772;2022-11-02T03:01:13;13.40;98.60
19665;DHT22;9980;51.020;7.772;2022-11-02T03:04:11;13.40;98.60
19665;DHT22;9980;51.020;7.772;2022-11-02T03:06:52;13.40;98.70
19665;DHT22;9980;51.020;7.772;2022-11-02T03:09:55;13.40;99.10
19665;DHT22;9980;51.020;7.772;2022-11-02T03:13:05;13.30;98.80
19665;DHT22;9980;51.020;7.772;2022-11-02T03:16:18;13.30;99.00
19665;DHT22;9980;51.020;7.772;2022-11-02T03:19:09;13.30;99.00
19665;DHT22;9980;51.020;7.772;2022-11-02T03:22:33;13.30;99.00
19665;DHT22;9980;51.020;7.772;2022-11-02T03:25:29;13.30;99.00
19665;DHT22;9980;51.020;7.772;2022-11-02T03:29:04;13.30;99.10
19665;DHT22;9980;51.020;7.772;2022-11-02T03:31:55;13.30;99.10
19665;DHT22;9980;51.020;7.772;2022-11-02T03:34:57;13.30;99.00
19665;DHT22;9980;51.020;7.772;2022-11-02T03:37:40;13.30;99.00
19665;DHT22;9980;51.020;7.772;2022-11-02T03:40:45;13.30;98.90
19665;DHT22;9980;51.020;7.772;2022-11-02T03:43:21;13.30;99.00
19665;DHT22;9980;51.020;7.772;2022-11-02T03:46:16;13.30;98.90
19665;DHT22;9980;51.020;7.772;2022-11-02T03:48:59;13.20;99.00
19665;DHT22;9980;51.020;7.772;2022-11-02T03:51:49;13.20;99.00
19665;DHT22;9980;51.020;7.772;2022-11-02T03:57:46;13.20;99.10
19665;DHT22;9980;51.020;7.772;2022-11-02T04:00:32;13.20;99.20
19665;DHT22;9980;51.020;7.772;2022-11-02T04:03:19;13.10;99.20
19665;DHT22;9980;51.020;7.772;2022-11-02T04:06:01;13.10;99.30
19665;DHT22;9980;51.020;7.772;2022-11-02T04:08:54;13.20;99.30
19665;DHT22;9980;51.020;7.772;2022-11-02T04:11:34;13.20;99.40
19665;DHT22;9980;51.020;7.772;2022-11-02T04:14:39;13.20;99.30
19665;DHT22;9980;51.020;7.772;2022-11-02T04:17:16;13.20;99.40
19665;DHT22;9980;51.020;7.772;2022-11-02T04:20:26;13.20;99.30
19665;DHT22;9980;51.020;7.772;2022-11-02T04:23:00;13.20;99.30
19665;DHT22;9980;51.020;7.772;2022-11-02T04:26:10;13.20;99.30
19665;DHT22;9980;51.020;7.772;2022-11-02T04:28:50;13.20;99.20
19665;DHT22;9980;51.020;7.772;2022-11-02T04:31:37;13.20;99.20
19665;DHT22;9980;51.020;7.772;2022-11-02T04:34:16;13.20;99.20
19665;DHT22;9980;51.020;7.772;2022-11-02T04:37:02;13.20;99.10
19665;DHT22;9980;51.020;7.772;2022-11-02T04:40:06;13.20;99.20
19665;DHT22;9980;51.020;7.772;2022-11-02T04:42:53;13.20;99.20
19665;DHT22;9980;51.020;7.772;2022-11-02T04:45:33;13.20;99.20
19665;DHT22;9980;51.020;7.772;2022-11-02T04:48:19;13.20;99.20
19665;DHT22;9980;51.020;7.772;2022-11-02T04:50:59;13.20;99.20
19665;DHT22;9980;51.020;7.772;2022-11-02T04:53:45;13.20;99.20
19665;DHT22;9980;51.020;7.772;2022-11-02T04:56:27;13.20;99.20
19665;DHT22;9980;51.020;7.772;2022-11-02T04:59:22;13.20;99.20
19665;DHT22;9980;51.020;7.772;2022-11-02T05:02:02;13.20;99.20
19665;DHT22;9980;51.020;7.772;2022-11-02T05:04:54;13.10;99.10
19665;DHT22;9980;51.020;7.772;2022-11-02T05:07:28;13.10;99.20
19665;DHT22;9980;51.020;7.772;2022-11-02T05:10:21;13.20;99.20
19665;DHT22;9980;51.020;7.772;2022-11-02T05:12:57;13.10;99.20
19665;DHT22;9980;51.020;7.772;2022-11-02T05:15:54;13.10;99.20
19665;DHT22;9980;51.020;7.772;2022-11-02T05:18:35;13.10;99.20
19665;DHT22;9980;51.020;7.772;2022-11-02T05:21:29;13.10;99.20
19665;DHT22;9980;51.020;7.772;2022-11-02T05:24:08;13.20;99.20
19665;DHT22;9980;51.020;7.772;2022-11-02T05:26:55;13.20;99.20
19665;DHT22;9980;51.020;7.772;2022-11-02T05:29:35;13.10;99.20
19665;DHT22;9980;51.020;7.772;2022-11-02T05:32:22;13.20;99.10
19665;DHT22;9980;51.020;7.772;2022-11-02T05:35:01;13.10;99.10
19665;DHT22;9980;51.020;7.772;2022-11-02T05:37:49;13.10;99.00
19665;DHT22;9980;51.020;7.772;2022-11-02T05:40:28;13.10;99.10
19665;DHT22;9980;51.020;7.772;2022-11-02T05:43:17;13.10;99.10
19665;DHT22;9980;51.020;7.772;2022-11-02T05:46:00;13.10;99.10
19665;DHT22;9980;51.020;7.772;2022-11-02T05:48:54;13.10;99.10
19665;DHT22;9980;51.020;7.772;2022-11-02T05:51:27;13.10;99.10
19665;DHT22;9980;51.020;7.772;2022-11-02T05:54:20;13.10;99.10
19665;DHT22;9980;51.020;7.772;2022-11-02T05:56:53;13.00;99.60
19665;DHT22;9980;51.020;7.772;2022-11-02T05:59:46;13.00;99.20
19665;DHT22;9980;51.020;7.772;2022-11-02T06:02:22;13.00;99.30
19665;DHT22;9980;51.020;7.772;2022-11-02T06:05:15;13.00;99.30
19665;DHT22;9980;51.020;7.772;2022-11-02T06:07:48;13.00;99.40
19665;DHT22;9980;51.020;7.772;2022-11-02T06:10:41;13.00;99.40
19665;DHT22;9980;51.020;7.772;2022-11-02T06:13:14;13.00;99.40
19665;DHT22;9980;51.020;7.772;2022-11-02T06:16:08;13.10;99.40
19665;DHT22;9980;51.020;7.772;2022-11-02T06:18:55;13.10;99.50
19665;DHT22;9980;51.020;7.772;2022-11-02T06:21:41;13.10;99.50
19665;DHT22;9980;51.020;7.772;2022-11-02T06:24:21;13.10;99.50
19665;DHT22;9980;51.020;7.772;2022-11-02T06:27:07;13.10;99.40
19665;DHT22;9980;51.020;7.772;2022-11-02T06:29:46;13.10;99.30
19665;DHT22;9980;51.020;7.772;2022-11-02T06:32:33;13.20;99.30
19665;DHT22;9980;51.020;7.772;2022-11-02T06:35:13;13.20;99.30
19665;DHT22;9980;51.020;7.772;2022-11-02T06:38:00;13.20;99.20
19665;DHT22;9980;51.020;7.772;2022-11-02T06:40:39;13.20;99.30
19665;DHT22;9980;51.020;7.772;2022-11-02T06:43:33;13.20;99.30
19665;DHT22;9980;51.020;7.772;2022-11-02T06:46:08;13.20;99.30
19665;DHT22;9980;51.020;7.772;2022-11-02T06:49:01;13.20;99.20
19665;DHT22;9980;51.020;7.772;2022-11-02T06:51:34;13.20;99.30
19665;DHT22;9980;51.020;7.772;2022-11-02T06:54:27;13.30;99.30
19665;DHT22;9980;51.020;7.772;2022-11-02T06:57:00;13.30;99.20
19665;DHT22;9980;51.020;7.772;2022-11-02T06:59:53;13.30;99.20
19665;DHT22;9980;51.020;7.772;2022-11-02T07:02:26;13.40;99.20
19665;DHT22;9980;51.020;7.772;2022-11-02T07:05:19;13.40;99.20
19665;DHT22;9980;51.020;7.772;2022-11-02T07:07:58;13.40;99.20
19665;DHT22;9980;51.020;7.772;2022-11-02T07:10:52;13.50;99.10
19665;DHT22;9980;51.020;7.772;2022-11-02T07:13:32;13.50;99.00
19665;DHT22;9980;51.020;7.772;2022-11-02T07:16:18;13.50;99.00
19665;DHT22;9980;51.020;7.772;2022-11-02T07:18:57;13.60;99.10
19665;DHT22;9980;51.020;7.772;2022-11-02T07:21:43;13.60;99.00
19665;DHT22;9980;51.020;7.772;2022-11-02T07:24:22;13.60;99.00
19665;DHT22;9980;51.020;7.772;2022-11-02T07:27:08;13.60;98.90
19665;DHT22;9980;51.020;7.772;2022-11-02T07:29:47;13.70;98.90
19665;DHT22;9980;51.020;7.772;2022-11-02T07:32:42;13.70;98.90
19665;DHT22;9980;51.020;7.772;2022-11-02T07:35:23;13.80;98.70
19665;DHT22;9980;51.020;7.772;2022-11-02T07:38:09;13.80;98.70
19665;DHT22;9980;51.020;7.772;2022-11-02T07:40:49;13.80;98.50
19665;DHT22;9980;51.020;7.772;2022-11-02T07:43:35;13.80;98.40
19665;DHT22;9980;51.020;7.772;2022-11-02T07:46:31;13.90;98.50
19665;DHT22;9980;51.020;7.772;2022-11-02T07:49:25;13.90;98.50
19665;DHT22;9980;51.020;7.772;2022-11-02T07:51:58;13.90;98.30
19665;DHT22;9980;51.020;7.772;2022-11-02T07:54:51;14.00;98.40
19665;DHT22;9980;51.020;7.772;2022-11-02T07:57:24;14.00;98.30
19665;DHT22;9980;51.020;7.772;2022-11-02T08:00:17;14.00;98.30
19665;DHT22;9980;51.020;7.772;2022-11-02T08:02:57;14.10;98.20
19665;DHT22;9980;51.020;7.772;2022-11-02T08:05:52;14.10;98.20
19665;DHT22;9980;51.020;7.772;2022-11-02T08:08:25;14.20;98.30
19665;DHT22;9980;51.020;7.772;2022-11-02T08:11:18;14.30;98.30
19665;DHT22;9980;51.020;7.772;2022-11-02T08:13:51;14.30;98.10
19665;DHT22;9980;51.020;7.772;2022-11-02T08:16:44;14.40;98.10
19665;DHT22;9980;51.020;7.772;2022-11-02T08:19:26;14.50;98.00
19665;DHT22;9980;51.020;7.772;2022-11-02T08:22:12;14.60;98.20
19665;DHT22;9980;51.020;7.772;2022-11-02T08:24:51;14.60;97.80
19665;DHT22;9980;51.020;7.772;2022-11-02T08:27:37;14.70;97.80
19665;DHT22;9980;51.020;7.772;2022-11-02T08:30:17;14.70;97.60
19665;DHT22;9980;51.020;7.772;2022-11-02T08:33:08;14.80;97.60
19665;DHT22;9980;51.020;7.772;2022-11-02T08:35:51;14.80;97.30
19665;DHT22;9980;51.020;7.772;2022-11-02T08:38:44;14.90;97.30
19665;DHT22;9980;51.020;7.772;2022-11-02T08:41:17;14.90;97.00
19665;DHT22;9980;51.020;7.772;2022-11-02T08:44:11;14.90;97.10
19665;DHT22;9980;51.020;7.772;2022-11-02T08:46:44;15.00;96.90
19665;DHT22;9980;51.020;7.772;2022-11-02T08:49:37;15.00;96.90
19665;DHT22;9980;51.020;7.772;2022-11-02T08:52:10;15.00;96.70
19665;DHT22;9980;51.020;7.772;2022-11-02T08:55:03;15.00;96.70
19665;DHT22;9980;51.020;7.772;2022-11-02T08:57:51;15.10;96.70
19665;DHT22;9980;51.020;7.772;2022-11-02T09:00:46;15.10;96.60
19665;DHT22;9980;51.020;7.772;2022-11-02T09:03:20;15.20;96.60
19665;DHT22;9980;51.020;7.772;2022-11-02T09:06:14;15.20;96.40
19665;DHT22;9980;51.020;7.772;2022-11-02T09:08:53;15.30;96.20
19665;DHT22;9980;51.020;7.772;2022-11-02T09:11:39;15.30;96.10
19665;DHT22;9980;51.020;7.772;2022-11-02T09:14:18;15.40;96.20
19665;DHT22;9980;51.020;7.772;2022-11-02T09:17:04;15.40;95.50
19665;DHT22;9980;51.020;7.772;2022-11-02T09:19:43;15.40;95.30
19665;DHT22;9980;51.020;7.772;2022-11-02T09:22:29;15.40;95.50
19665;DHT22;9980;51.020;7.772;2022-11-02T09:25:09;15.40;95.20
19665;DHT22;9980;51.020;7.772;2022-11-02T09:27:57;15.40;95.20
19665;DHT22;9980;51.020;7.772;2022-11-02T09:30:37;15.40;95.10
19665;DHT22;9980;51.020;7.772;2022-11-02T09:33:30;15.30;95.10
19665;DHT22;9980;51.020;7.772;2022-11-02T09:36:10;15.40;94.70
19665;DHT22;9980;51.020;7.772;2022-11-02T09:39:03;15.30;94.80
19665;DHT22;9980;51.020;7.772;2022-11-02T09:41:45;15.40;94.90
19665;DHT22;9980;51.020;7.772;2022-11-02T09:45:00;15.30;94.70
19665;DHT22;9980;51.020;7.772;2022-11-02T09:47:42;15.30;94.70
19665;DHT22;9980;51.020;7.772;2022-11-02T09:51:15;15.30;94.60
19665;DHT22;9980;51.020;7.772;2022-11-02T09:54:14;15.30;94.60
19665;DHT22;9980;51.020;7.772;2022-11-02T09:57:15;15.30;95.20
19665;DHT22;9980;51.020;7.772;2022-11-02T09:59:57;15.30;94.80
19665;DHT22;9980;51.020;7.772;2022-11-02T10:06:34;15.40;94.50
19665;DHT22;9980;51.020;7.772;2022-11-02T10:09:33;15.50;94.40
19665;DHT22;9980;51.020;7.772;2022-11-02T10:13:13;15.60;94.60
19665;DHT22;9980;51.020;7.772;2022-11-02T10:19:19;15.80;94.80
19665;DHT22;9980;51.020;7.772;2022-11-02T10:22:02;15.90;94.70
19665;DHT22;9980;51.020;7.772;2022-11-02T10:24:56;16.00;94.60
19665;DHT22;9980;51.020;7.772;2022-11-02T10:27:36;16.10;94.20
19665;DHT22;9980;51.020;7.772;2022-11-02T10:30:31;16.20;93.90
19665;DHT22;9980;51.020;7.772;2022-11-02T10:33:11;16.30;93.80
19665;DHT22;9980;51.020;7.772;2022-11-02T10:51:57;16.30;92.20
19665;DHT22;9980;51.020;7.772;2022-11-02T10:54:51;16.30;92.40
19665;DHT22;9980;51.020;7.772;2022-11-02T10:57:31;16.30;92.20
19665;DHT22;9980;51.020;7.772;2022-11-02T11:00:35;16.20;92.10
19665;DHT22;9980;51.020;7.772;2022-11-02T11:03:14;16.10;92.00
19665;DHT22;9980;51.020;7.772;2022-11-02T11:06:11;16.10;91.70
19665;DHT22;9980;51.020;7.772;2022-11-02T11:08:45;16.00;91.70
19665;DHT22;9980;51.020;7.772;2022-11-02T11:11:40;16.00;91.90
19665;DHT22;9980;51.020;7.772;2022-11-02T11:14:29;16.10;91.90
19665;DHT22;9980;51.020;7.772;2022-11-02T11:17:49;16.10;92.10
19665;DHT22;9980;51.020;7.772;2022-11-02T11:20:53;16.20;91.80
19665;DHT22;9980;51.020;7.772;2022-11-02T11:23:41;16.20;91.20
19665;DHT22;9980;51.020;7.772;2022-11-02T11:26:27;16.30;91.20
19665;DHT22;9980;51.020;7.772;2022-11-02T11:29:23;16.40;91.10
19665;DHT22;9980;51.020;7.772;2022-11-02T11:31:56;16.40;91.10
19665;DHT22;9980;51.020;7.772;2022-11-02T11:35:04;16.40;91.00
19665;DHT22;9980;51.020;7.772;2022-11-02T11:37:50;16.50;90.80
19665;DHT22;9980;51.020;7.772;2022-11-02T11:40:50;16.60;90.80
19665;DHT22;9980;51.020;7.772;2022-11-02T11:43:35;16.60;90.60
19665;DHT22;9980;51.020;7.772;2022-11-02T11:46:22;16.60;90.70
19665;DHT22;9980;51.020;7.772;2022-11-02T11:49:02;16.70;90.30
19665;DHT22;9980;51.020;7.772;2022-11-02T11:51:50;16.70;90.20
19665;DHT22;9980;51.020;7.772;2022-11-02T11:54:32;16.70;89.80
19665;DHT22;9980;51.020;7.772;2022-11-02T11:57:34;16.70;90.20
19665;DHT22;9980;51.020;7.772;2022-11-02T12:00:26;16.70;88.60
19665;DHT22;9980;51.020;7.772;2022-11-02T12:03:13;16.70;88.30
19665;DHT22;9980;51.020;7.772;2022-11-02T12:06:19;16.70;88.00
19665;DHT22;9980;51.020;7.772;2022-11-02T12:09:45;16.60;87.80
19665;DHT22;9980;51.020;7.772;2022-11-02T12:12:41;16.60;88.10
19665;DHT22;9980;51.020;7.772;2022-11-02T12:25:56;16.50;88.00
19665;DHT22;9980;51.020;7.772;2022-11-02T12:36:44;16.60;88.60
19665;DHT22;9980;51.020;7.772;2022-11-02T12:39:00;16.60;88.50
19665;DHT22;9980;51.020;7.772;2022-11-02T12:42:29;16.70;88.80
19665;DHT22;9980;51.020;7.772;2022-11-02T12:48:28;16.90;87.80
19665;DHT22;9980;51.020;7.772;2022-11-02T12:55:18;17.00;88.00
19665;DHT22;9980;51.020;7.772;2022-11-02T12:58:00;17.10;88.10
19665;DHT22;9980;51.020;7.772;2022-11-02T13:01:31;17.10;88.00
19665;DHT22;9980;51.020;7.772;2022-11-02T13:04:26;17.20;88.00
19665;DHT22;9980;51.020;7.772;2022-11-02T13:07:34;17.30;87.80
19665;DHT22;9980;51.020;7.772;2022-11-02T13:10:23;17.40;87.10
19665;DHT22;9980;51.020;7.772;2022-11-02T13:13:27;17.40;86.50
19665;DHT22;9980;51.020;7.772;2022-11-02T13:16:10;17.40;87.00
19665;DHT22;9980;51.020;7.772;2022-11-02T13:19:17;17.50;87.10
19665;DHT22;9980;51.020;7.772;2022-11-02T13:21:57;17.50;87.00
19665;DHT22;9980;51.020;7.772;2022-11-02T13:25:19;17.50;86.30
19665;DHT22;9980;51.020;7.772;2022-11-02T13:31:33;17.50;86.80
19665;DHT22;9980;51.020;7.772;2022-11-02T13:34:37;17.50;87.10
19665;DHT22;9980;51.020;7.772;2022-11-02T13:37:36;17.50;86.80
19665;DHT22;9980;51.020;7.772;2022-11-02T13:40:38;17.50;86.80
19665;DHT22;9980;51.020;7.772;2022-11-02T13:50:10;17.50;85.30
19665;DHT22;9980;51.020;7.772;2022-11-02T13:53:01;17.50;86.40
19665;DHT22;9980;51.020;7.772;2022-11-02T13:55:47;17.50;85.60
19665;DHT22;9980;51.020;7.772;2022-11-02T13:58:52;17.50;86.40
19665;DHT22;9980;51.020;7.772;2022-11-02T14:01:37;17.50;85.80
19665;DHT22;9980;51.020;7.772;2022-11-02T14:04:39;17.50;86.20
19665;DHT22;9980;51.020;7.772;2022-11-02T14:07:38;17.50;85.60
19665;DHT22;9980;51.020;7.772;2022-11-02T14:10:38;17.40;85.90
19665;DHT22;9980;51.020;7.772;2022-11-02T14:13:13;17.50;85.80
19665;DHT22;9980;51.020;7.772;2022-11-02T14:16:07;17.40;86.40
19665;DHT22;9980;51.020;7.772;2022-11-02T14:27:32;17.40;86.40
19665;DHT22;9980;51.020;7.772;2022-11-02T14:30:38;17.30;86.30
19665;DHT22;9980;51.020;7.772;2022-11-02T14:43:07;17.10;86.10
19665;DHT22;9980;51.020;7.772;2022-11-02T14:46:48;17.00;86.60
19665;DHT22;9980;51.020;7.772;2022-11-02T14:49:48;16.90;86.50
19665;DHT22;9980;51.020;7.772;2022-11-02T14:52:37;16.80;87.00
19665;DHT22;9980;51.020;7.772;2022-11-02T14:55:25;16.70;87.10
19665;DHT22;9980;51.020;7.772;2022-11-02T14:58:17;16.70;87.50
19665;DHT22;9980;51.020;7.772;2022-11-02T15:01:01;16.60;88.10
19665;DHT22;9980;51.020;7.772;2022-11-02T15:03:47;16.50;88.50
19665;DHT22;9980;51.020;7.772;2022-11-02T15:06:35;16.40;88.60
19665;DHT22;9980;51.020;7.772;2022-11-02T15:09:09;16.30;88.50
19665;DHT22;9980;51.020;7.772;2022-11-02T15:24:18;15.80;90.10
19665;DHT22;9980;51.020;7.772;2022-11-02T15:27:01;15.70;90.20
19665;DHT22;9980;51.020;7.772;2022-11-02T15:29:55;15.60;90.30
19665;DHT22;9980;51.020;7.772;2022-11-02T15:32:33;15.50;90.50
19665;DHT22;9980;51.020;7.772;2022-11-02T15:35:39;15.40;90.60
19665;DHT22;9980;51.020;7.772;2022-11-02T15:38:13;15.20;90.70
19665;DHT22;9980;51.020;7.772;2022-11-02T15:41:42;15.10;90.70
19665;DHT22;9980;51.020;7.772;2022-11-02T15:50:59;14.80;91.10
19665;DHT22;9980;51.020;7.772;2022-11-02T16:00:19;14.40;91.40
19665;DHT22;9980;51.020;7.772;2022-11-02T16:03:16;14.30;91.50
19665;DHT22;9980;51.020;7.772;2022-11-02T16:05:57;14.10;91.50
19665;DHT22;9980;51.020;7.772;2022-11-02T16:08:45;14.10;91.60
19665;DHT22;9980;51.020;7.772;2022-11-02T16:11:24;14.00;91.70
19665;DHT22;9980;51.020;7.772;2022-11-02T16:14:18;13.90;91.80
19665;DHT22;9980;51.020;7.772;2022-11-02T16:16:51;13.80;92.10
19665;DHT22;9980;51.020;7.772;2022-11-02T16:19:44;13.70;92.10
19665;DHT22;9980;51.020;7.772;2022-11-02T16:22:25;13.60;92.30
19665;DHT22;9980;51.020;7.772;2022-11-02T16:25:42;13.50;92.40
19665;DHT22;9980;51.020;7.772;2022-11-02T16:28:26;13.40;92.50
19665;DHT22;9980;51.020;7.772;2022-11-02T16:31:26;13.30;92.60
19665;DHT22;9980;51.020;7.772;2022-11-02T16:34:41;13.30;92.80
19665;DHT22;9980;51.020;7.772;2022-11-02T16:37:29;13.20;92.90
19665;DHT22;9980;51.020;7.772;2022-11-02T16:40:15;13.10;93.10
19665;DHT22;9980;51.020;7.772;2022-11-02T16:43:03;13.00;93.10
19665;DHT22;9980;51.020;7.772;2022-11-02T16:45:48;12.90;93.20
19665;DHT22;9980;51.020;7.772;2022-11-02T16:48:35;12.90;93.30
19665;DHT22;9980;51.020;7.772;2022-11-02T16:51:17;12.80;93.80
19665;DHT22;9980;51.020;7.772;2022-11-02T16:54:38;12.70;93.50
19665;DHT22;9980;51.020;7.772;2022-11-02T16:57:29;12.70;93.60
19665;DHT22;9980;51.020;7.772;2022-11-02T17:00:26;12.60;93.70
19665;DHT22;9980;51.020;7.772;2022-11-02T17:03:06;12.50;93.70
19665;DHT22;9980;51.020;7.772;2022-11-02T17:06:04;12.40;93.90
19665;DHT22;9980;51.020;7.772;2022-11-02T17:08:53;12.40;93.90
19665;DHT22;9980;51.020;7.772;2022-11-02T17:11:41;12.30;93.90
19665;DHT22;9980;51.020;7.772;2022-11-02T17:14:22;12.20;94.00
19665;DHT22;9980;51.020;7.772;2022-11-02T17:22:58;12.10;94.10
19665;DHT22;9980;51.020;7.772;2022-11-02T17:25:39;12.00;94.20
19665;DHT22;9980;51.020;7.772;2022-11-02T17:31:19;11.90;94.20
19665;DHT22;9980;51.020;7.772;2022-11-02T17:34:18;11.90;94.40
19665;DHT22;9980;51.020;7.772;2022-11-02T17:36:51;11.80;94.40
19665;DHT22;9980;51.020;7.772;2022-11-02T17:39:45;11.70;94.40
19665;DHT22;9980;51.020;7.772;2022-11-02T17:42:18;11.70;94.50
19665;DHT22;9980;51.020;7.772;2022-11-02T17:45:35;11.60;94.40
19665;DHT22;9980;51.020;7.772;2022-11-02T17:48:09;11.60;94.50
19665;DHT22;9980;51.020;7.772;2022-11-02T17:51:02;11.50;94.40
19665;DHT22;9980;51.020;7.772;2022-11-02T17:53:41;11.40;94.50
19665;DHT22;9980;51.020;7.772;2022-11-02T17:56:27;11.40;94.50
19665;DHT22;9980;51.020;7.772;2022-11-02T17:59:06;11.30;94.60
19665;DHT22;9980;51.020;7.772;2022-11-02T18:01:52;11.30;94.60
19665;DHT22;9980;51.020;7.772;2022-11-02T18:04:31;11.20;94.70
19665;DHT22;9980;51.020;7.772;2022-11-02T18:07:17;11.20;94.70
19665;DHT22;9980;51.020;7.772;2022-11-02T18:09:56;11.10;94.80
19665;DHT22;9980;51.020;7.772;2022-11-02T18:12:43;11.10;94.80
19665;DHT22;9980;51.020;7.772;2022-11-02T18:15:29;11.00;94.90
19665;DHT22;9980;51.020;7.772;2022-11-02T18:18:16;11.00;95.00
19665;DHT22;9980;51.020;7.772;2022-11-02T18:20:55;10.90;95.00
19665;DHT22;9980;51.020;7.772;2022-11-02T18:23:41;10.80;95.00
19665;DHT22;9980;51.020;7.772;2022-11-02T18:26:20;10.80;95.10
19665;DHT22;9980;51.020;7.772;2022-11-02T18:29:13;10.70;95.00
19665;DHT22;9980;51.020;7.772;2022-11-02T18:31:46;10.70;95.20
19665;DHT22;9980;51.020;7.772;2022-11-02T18:34:39;10.70;95.20
19665;DHT22;9980;51.020;7.772;2022-11-02T18:37:12;10.60;95.30
19665;DHT22;9980;51.020;7.772;2022-11-02T18:40:06;10.60;95.30
19665;DHT22;9980;51.020;7.772;2022-11-02T18:42:41;10.50;95.30
19665;DHT22;9980;51.020;7.772;2022-11-02T18:45:35;10.50;95.50
19665;DHT22;9980;51.020;7.772;2022-11-02T18:48:08;10.40;95.50
19665;DHT22;9980;51.020;7.772;2022-11-02T18:51:01;10.40;95.50
19665;DHT22;9980;51.020;7.772;2022-11-02T18:53:42;10.40;95.60
19665;DHT22;9980;51.020;7.772;2022-11-02T18:56:28;10.30;95.70
19665;DHT22;9980;51.020;7.772;2022-11-02T18:59:08;10.30;95.60
19665;DHT22;9980;51.020;7.772;2022-11-02T19:01:54;10.20;95.60
19665;DHT22;9980;51.020;7.772;2022-11-02T19:04:33;10.20;95.70
19665;DHT22;9980;51.020;7.772;2022-11-02T19:07:19;10.10;95.70
19665;DHT22;9980;51.020;7.772;2022-11-02T19:10:17;10.10;96.00
19665;DHT22;9980;51.020;7.772;2022-11-02T19:13:06;10.00;95.80
19665;DHT22;9980;51.020;7.772;2022-11-02T19:15:45;10.00;96.10
19665;DHT22;9980;51.020;7.772;2022-11-02T19:18:31;10.00;96.10
19665;DHT22;9980;51.020;7.772;2022-11-02T19:21:12;9.90;96.10
19665;DHT22;9980;51.020;7.772;2022-11-02T19:24:05;9.90;96.10
19665;DHT22;9980;51.020;7.772;2022-11-02T19:26:45;9.90;96.30
19665;DHT22;9980;51.020;7.772;2022-11-02T19:29:32;9.80;96.10
19665;DHT22;9980;51.020;7.772;2022-11-02T19:32:11;9.80;96.20
19665;DHT22;9980;51.020;7.772;2022-11-02T19:34:58;9.80;96.20
19665;DHT22;9980;51.020;7.772;2022-11-02T19:37:31;9.70;96.40
19665;DHT22;9980;51.020;7.772;2022-11-02T19:40:24;9.70;96.30
19665;DHT22;9980;51.020;7.772;2022-11-02T19:42:57;9.70;96.50
19665;DHT22;9980;51.020;7.772;2022-11-02T19:45:50;9.60;96.30
19665;DHT22;9980;51.020;7.772;2022-11-02T19:48:23;9.60;96.40
19665;DHT22;9980;51.020;7.772;2022-11-02T19:51:29;9.60;96.50
19665;DHT22;9980;51.020;7.772;2022-11-02T19:54:09;9.50;96.60
19665;DHT22;9980;51.020;7.772;2022-11-02T19:56:55;9.50;96.50
19665;DHT22;9980;51.020;7.772;2022-11-02T19:59:34;9.50;96.60
19665;DHT22;9980;51.020;7.772;2022-11-02T20:02:20;9.50;96.60
19665;DHT22;9980;51.020;7.772;2022-11-02T20:04:59;9.40;96.70
19665;DHT22;9980;51.020;7.772;2022-11-02T20:07:45;9.40;96.80